Impacts TAF Board
For situational awareness. Not to be used for flight planning purposes.
IDs:

KTPA - Tampa Intl Arpt, FL, US

Issued at 0527 UTC 03 Aug 2021
Updated at 0627 UTC 03 Aug 2021
Potential Impact None Slight Moderate High
Time0608Z 03/07Z 03/08Z 03/09Z 03/10Z 03/11Z 03/12Z 03/13Z 03/14Z 03/15Z 03/16Z 03/17Z 03/18Z 03/19Z>>
Type OBS PRVL PRVL PRVL PRVL
  [TEMP]  
PRVL
  [TEMP]  
PRVL
  [TEMP]  
PRVL PRVL PRVL PRVL PRVL PRVL PRVL
VIS 10 >6 >6 >6 >6
  [4]  
>6
  [4]  
>6
  [4]  
>6 >6 6 6 6 6 6
CIG 25 200 200 200 200
  [25]  
200
  [25]  
200
  [25]  
200 200 50 50 50 50 50
Cover BKN BKN BKN BKN BKN
  [BKN]  
BKN
  [BKN]  
BKN
  [BKN]  
BKN BKN BKN BKN BKN BKN BKN
FltCat MVFR VFR VFR VFR VFR
  [MVFR]  
VFR
  [MVFR]  
VFR
  [MVFR]  
VFR VFR VFR VFR VFR VFR VFR
WX -- VCSH VCSH VCSH VCSH
  [SHRA BR]  
VCSH
  [SHRA BR]  
VCSH
  [SHRA BR]  
VCSH VCSH SHRA VCTS SHRA VCTS SHRA VCTS SHRA VCTS SHRA VCTS
WDir 120 220 220 220 220
[220]
220
[220]
220
[220]
220 220 230 230 230 230 230
WSpd 3 6 6 6 6
  [6]  
6
  [6]  
6
  [6]  
6 6 10 10 10 10 10
WGst -- -- -- -- --
  [--]  
--
  [--]  
--
  [--]  
-- -- -- -- -- -- --
Raw TAF
KTPA 030527Z 0306/0412 22006KT P6SM VCSH SCT025 BKN200
  TEMPO 0310/0313 4SM SHRA BR BKN025 BKN200
  FM031500 23010KT 6SM SHRA VCTS SCT025CB BKN050 BKN100
  FM032100 24011KT P6SM VCSH SCT035 SCT100 BKN200
  FM040400 24006KT P6SM SCT030 BKN200
  FM040800 20005KT P6SM VCSH SCT025 BKN200


Raw METAR
KTPA 030608Z 12003KT 10SM SCT019 BKN025 BKN030 27/25 A2999 RMK AO2 T02720250
KTPA 030553Z 13003KT 10SM SCT025 BKN210 27/25 A2999 RMK AO2 SLP155 60013 T02720250 10300 20261 58012
KTPA 030523Z 13004KT 10SM SCT021 BKN210 27/23 A3000 RMK AO2 T02670233
KTPA 030453Z VRB03KT 10SM BKN024 BKN210 27/23 A3002 RMK AO2 RAB23E52 SLP163 P0013 T02670233 403220267
KTPA 030446Z 00000KT 2 1/2SM -RA BKN024 BKN210 27/23 A3001 RMK AO2 RAB23 P0013 T02670233
KTPA 030353Z 12006KT 10SM BKN025 BKN210 28/24 A3003 RMK AO2 SLP167 T02780239

METAR Board
Radar Display
Forecast Discussion
For situational awareness. Not to be used for flight planning purposes.